Aviation Digital Data Service (ADDS)

Output produced by METARs form (0444 UTC 26 April 2015)
found at http://www.aviationweather.gov/adds/metars/
 
METAR text: KCMI 260353Z 05018G26KT 7SM OVC013 07/05 A2975 RMK AO2 PK WND 05027/0337 SLP075 T00720050
Conditions at: KCMI (CHAMPAIGN/URBANA, IL, US) observed 0353 UTC 26 April 2015
Temperature: 7.2°C (45°F)
Dewpoint: 5.0°C (41°F) [RH = 86%]
Pressure (altimeter): 29.75 inches Hg (1007.5 mb)
[Sea-level pressure: 1007.5 mb]
Winds: from the NE (50 degrees) at 21 MPH (18 knots; 9.4 m/s)
gusting to 30 MPH (26 knots; 13.5 m/s)
Visibility: 7 miles (11 km)
Ceiling: 1300 feet AGL
Clouds: overcast cloud deck at 1300 feet AGL
Weather: no significant weather observed at this time

METAR text: KCMI 260335Z 05015G26KT 8SM BKN013 OVC020 07/06 A2975 RMK AO2 PK WND 05027/0255 T00720056
Conditions at: KCMI (CHAMPAIGN/URBANA, IL, US) observed 0335 UTC 26 April 2015
Temperature: 7.2°C (45°F)
Dewpoint: 5.6°C (42°F) [RH = 90%]
Pressure (altimeter): 29.75 inches Hg (1007.5 mb)
Winds: from the NE (50 degrees) at 17 MPH (15 knots; 7.8 m/s)
gusting to 30 MPH (26 knots; 13.5 m/s)
Visibility: 8 miles (13 km)
Ceiling: 1300 feet AGL
Clouds: broken clouds at 1300 feet AGL
overcast cloud deck at 2000 feet AGL
Weather: no significant weather observed at this time

METAR text: KCMI 260302Z 05015G27KT 9SM OVC015 07/06 A2974 RMK AO2 PK WND 05027/0255 T00720056
Conditions at: KCMI (CHAMPAIGN/URBANA, IL, US) observed 0302 UTC 26 April 2015
Temperature: 7.2°C (45°F)
Dewpoint: 5.6°C (42°F) [RH = 90%]
Pressure (altimeter): 29.74 inches Hg (1007.2 mb)
Winds: from the NE (50 degrees) at 17 MPH (15 knots; 7.8 m/s)
gusting to 31 MPH (27 knots; 14.0 m/s)
Visibility: 9 miles (14 km)
Ceiling: 1500 feet AGL
Clouds: overcast cloud deck at 1500 feet AGL
Weather: no significant weather observed at this time

METAR text: KCMI 260253Z 05017G24KT 9SM OVC014 08/06 A2974 RMK AO2 PK WND 05027/0215 SLP071 60000 T00780056 53026
Conditions at: KCMI (CHAMPAIGN/URBANA, IL, US) observed 0253 UTC 26 April 2015
Temperature: 7.8°C (46°F)
Dewpoint: 5.6°C (42°F) [RH = 86%]
Pressure (altimeter): 29.74 inches Hg (1007.2 mb)
[Sea-level pressure: 1007.1 mb]
Winds: from the NE (50 degrees) at 20 MPH (17 knots; 8.8 m/s)
gusting to 28 MPH (24 knots; 12.5 m/s)
Visibility: 9 miles (14 km)
Ceiling: 1400 feet AGL
Clouds: overcast cloud deck at 1400 feet AGL
Weather: no significant weather observed at this time

METAR text: KCMI 260246Z 05017G25KT 9SM OVC014 08/06 A2973 RMK AO2 PK WND 05027/0215 T00780056
Conditions at: KCMI (CHAMPAIGN/URBANA, IL, US) observed 0246 UTC 26 April 2015
Temperature: 7.8°C (46°F)
Dewpoint: 5.6°C (42°F) [RH = 86%]
Pressure (altimeter): 29.73 inches Hg (1006.9 mb)
Winds: from the NE (50 degrees) at 20 MPH (17 knots; 8.8 m/s)
gusting to 29 MPH (25 knots; 13.0 m/s)
Visibility: 9 miles (14 km)
Ceiling: 1400 feet AGL
Clouds: overcast cloud deck at 1400 feet AGL
Weather: no significant weather observed at this time

Forecast for: KCMI (CHAMPAIGN/URBANA, IL, US)
Text: KCMI 260227Z 2602/2624 04014G24KT P6SM BKN010 OVC035
Forecast period: 0200 to 0900 UTC 26 April 2015
Forecast type: FROM: standard forecast or significant change
Winds: from the NE (40 degrees) at 16 MPH (14 knots; 7.3 m/s)
gusting to 28 MPH (24 knots; 12.5 m/s)
Visibility: 6 or more miles (10+ km)
Ceiling: 1000 feet AGL
Clouds: broken clouds at 1000 feet AGL
overcast cloud deck at 3500 feet AGL
Weather: no significant weather forecast for this period
Text: TEMPO 2602/2604 4SM BR SCT010 OVC035
Forecast period: 0200 to 0400 UTC 26 April 2015
Forecast type: TEMPORARY: The following changes expected for less than half the time period
Visibility: 4 miles (6 km)
Ceiling: 3500 feet AGL
Clouds: scattered clouds at 1000 feet AGL
overcast cloud deck at 3500 feet AGL
Weather: BR  (mist)
Text: FM260900 03012KT P6SM SCT015
Forecast period: 0900 to 1500 UTC 26 April 2015
Forecast type: FROM: standard forecast or significant change
Winds: from the NNE (30 degrees) at 14 MPH (12 knots; 6.2 m/s)
Visibility: 6 or more miles (10+ km)
Clouds: scattered clouds at 1500 feet AGL
Weather: no significant weather forecast for this period
Text: FM261500 03012G18KT P6SM SKC
Forecast period: 1500 UTC 26 April 2015 to 0000 UTC 27 April 2015
Forecast type: FROM: standard forecast or significant change
Winds: from the NNE (30 degrees) at 14 MPH (12 knots; 6.2 m/s)
gusting to 21 MPH (18 knots; 9.4 m/s)
Visibility: 6 or more miles (10+ km)
Clouds: clear skies
Weather: no significant weather forecast for this period